createdAt,value
2023-01-30T00:00:13.103Z,-2.62
2023-01-30T00:02:58.024Z,-2.59
2023-01-30T00:05:43.276Z,-2.59
2023-01-30T00:08:27.890Z,-2.56
2023-01-30T00:11:13.648Z,-2.55
2023-01-30T00:13:59.720Z,-2.56
2023-01-30T00:16:44.808Z,-2.55
2023-01-30T00:19:29.541Z,-2.56
2023-01-30T00:22:14.050Z,-2.56
2023-01-30T00:24:59.107Z,-2.54
2023-01-30T00:27:44.411Z,-2.55
2023-01-30T00:30:29.259Z,-2.52
2023-01-30T00:33:16.164Z,-2.49
2023-01-30T00:36:01.388Z,-2.57
2023-01-30T00:38:46.465Z,-2.52
2023-01-30T00:41:51.233Z,-2.50
2023-01-30T00:44:54.841Z,-2.46
2023-01-30T00:47:41.872Z,-2.43
2023-01-30T00:50:41.770Z,-2.39
2023-01-30T00:53:26.750Z,-2.37
2023-01-30T00:56:11.505Z,-2.35
2023-01-30T00:58:56.104Z,-2.36
2023-01-30T01:01:40.879Z,-2.35
2023-01-30T01:04:25.719Z,-2.38
2023-01-30T01:07:11.376Z,-2.43
2023-01-30T01:09:56.247Z,-2.41
2023-01-30T01:12:45.555Z,-2.42
2023-01-30T01:15:30.846Z,-2.49
2023-01-30T01:18:15.566Z,-2.46
2023-01-30T01:21:00.302Z,-2.46
2023-01-30T01:23:49.532Z,-2.46
2023-01-30T01:26:34.498Z,-2.46
2023-01-30T01:29:20.545Z,-2.49
2023-01-30T01:32:05.440Z,-2.45
2023-01-30T01:34:50.217Z,-2.45
2023-01-30T01:37:34.942Z,-2.43
2023-01-30T01:40:40.247Z,-2.40
2023-01-30T01:43:25.598Z,-2.40
2023-01-30T01:46:20.316Z,-2.40
2023-01-30T01:49:12.780Z,-2.43
2023-01-30T01:52:03.559Z,-2.39
2023-01-30T01:54:59.232Z,-2.40
2023-01-30T01:57:50.787Z,-2.38
2023-01-30T02:00:35.625Z,-2.38
2023-01-30T02:03:24.606Z,-2.40
2023-01-30T02:06:11.436Z,-2.39
2023-01-30T02:09:05.086Z,-2.37
2023-01-30T02:11:55.740Z,-2.38
2023-01-30T02:14:42.055Z,-2.35
2023-01-30T02:17:26.687Z,-2.39
2023-01-30T02:20:19.820Z,-2.37
2023-01-30T02:23:41.951Z,-2.36
2023-01-30T02:27:01.082Z,-2.33
2023-01-30T02:30:07.488Z,-2.32
2023-01-30T02:33:40.704Z,-2.35
2023-01-30T02:37:03.972Z,-2.37
2023-01-30T02:40:06.043Z,-2.36
2023-01-30T02:43:15.295Z,-2.33
2023-01-30T02:46:11.736Z,-2.33
2023-01-30T02:49:07.228Z,-2.35
2023-01-30T02:51:53.505Z,-2.33
2023-01-30T02:54:39.080Z,-2.35
2023-01-30T02:57:25.727Z,-2.33
2023-01-30T03:00:21.007Z,-2.36
2023-01-30T03:03:11.881Z,-2.44
2023-01-30T03:06:25.285Z,-2.52
2023-01-30T03:09:18.024Z,-2.53
2023-01-30T03:12:14.792Z,-2.54
2023-01-30T03:15:08.158Z,-2.56
2023-01-30T03:17:54.825Z,-2.55
2023-01-30T03:20:40.965Z,-2.58
2023-01-30T03:23:25.418Z,-2.58
2023-01-30T03:26:17.833Z,-2.61
2023-01-30T03:29:04.166Z,-2.62
2023-01-30T03:31:49.147Z,-2.58
2023-01-30T03:34:34.093Z,-2.54
2023-01-30T03:37:18.776Z,-2.50
2023-01-30T03:40:04.596Z,-2.56
2023-01-30T03:42:49.928Z,-2.51
2023-01-30T03:45:34.958Z,-2.47
2023-01-30T03:48:19.634Z,-2.45
2023-01-30T03:51:04.815Z,-2.44
2023-01-30T03:53:49.864Z,-2.52
2023-01-30T03:56:35.302Z,-2.60
2023-01-30T03:59:20.438Z,-2.56
2023-01-30T04:02:11.793Z,-2.60
2023-01-30T04:04:56.735Z,-2.58
2023-01-30T04:07:41.925Z,-2.60
2023-01-30T04:10:28.093Z,-2.55
2023-01-30T04:13:13.168Z,-2.55
2023-01-30T04:16:20.108Z,-2.59
2023-01-30T04:19:34.484Z,-2.56
2023-01-30T04:22:19.540Z,-2.57
2023-01-30T04:25:05.841Z,-2.62
2023-01-30T04:27:50.511Z,-2.57
2023-01-30T04:30:39.484Z,-2.58
2023-01-30T04:33:54.212Z,-2.57
2023-01-30T04:36:39.709Z,-2.58
2023-01-30T04:39:24.704Z,-2.52
2023-01-30T04:42:28.299Z,-2.53
2023-01-30T04:45:33.227Z,-2.49
2023-01-30T04:48:20.596Z,-2.43
2023-01-30T04:51:06.057Z,-2.45
2023-01-30T04:53:51.648Z,-2.42
2023-01-30T04:56:37.197Z,-2.39
2023-01-30T04:59:23.767Z,-2.37
2023-01-30T05:02:09.143Z,-2.35
2023-01-30T05:04:54.273Z,-2.35
2023-01-30T05:07:39.343Z,-2.35
2023-01-30T05:10:25.549Z,-2.32
2023-01-30T05:13:10.112Z,-2.36
2023-01-30T05:15:54.858Z,-2.28
2023-01-30T05:18:40.066Z,-2.25
2023-01-30T05:21:29.932Z,-2.31
2023-01-30T05:24:14.750Z,-2.29
2023-01-30T05:26:59.842Z,-2.25
2023-01-30T05:29:44.599Z,-2.22
2023-01-30T05:32:30.830Z,-2.23
2023-01-30T05:35:15.948Z,-2.22
2023-01-30T05:38:01.647Z,-2.27
2023-01-30T05:40:46.726Z,-2.18
2023-01-30T05:43:32.645Z,-2.17
2023-01-30T05:46:17.854Z,-2.16
2023-01-30T05:49:03.910Z,-2.18
2023-01-30T05:51:50.590Z,-2.12
2023-01-30T05:54:36.148Z,-2.16
2023-01-30T05:57:21.507Z,-2.15
2023-01-30T06:00:06.785Z,-2.17
2023-01-30T06:02:57.998Z,-2.14
2023-01-30T06:05:42.859Z,-2.12
2023-01-30T06:08:28.089Z,-2.17
2023-01-30T06:11:15.998Z,-2.14
2023-01-30T06:14:01.332Z,-2.11
2023-01-30T06:16:47.660Z,-2.12
2023-01-30T06:19:33.568Z,-2.14
2023-01-30T06:22:18.363Z,-2.10
2023-01-30T06:25:29.892Z,-2.04
2023-01-30T06:28:48.044Z,-2.14
2023-01-30T06:32:26.957Z,-1.96
2023-01-30T06:35:13.386Z,-2.15
2023-01-30T06:37:58.612Z,-2.02
2023-01-30T06:40:53.060Z,-1.96
2023-01-30T06:43:38.124Z,-2.16
2023-01-30T06:46:24.704Z,-2.04
2023-01-30T06:49:10.023Z,-2.07
2023-01-30T06:51:55.240Z,-2.04
2023-01-30T06:54:41.361Z,-1.84
2023-01-30T06:57:26.294Z,-1.79
2023-01-30T07:00:16.485Z,-1.78
2023-01-30T07:03:02.472Z,-1.75
2023-01-30T07:05:48.321Z,-1.67
2023-01-30T07:08:33.593Z,-1.76
2023-01-30T07:11:19.110Z,-1.70
2023-01-30T07:14:07.076Z,-1.77
2023-01-30T07:17:28.374Z,-1.64
2023-01-30T07:20:19.234Z,-1.59
2023-01-30T07:23:05.432Z,-1.67
2023-01-30T07:25:50.969Z,-1.49
2023-01-30T07:28:35.852Z,-1.46
2023-01-30T07:31:21.163Z,-1.50
2023-01-30T07:34:08.858Z,-1.52
2023-01-30T07:36:57.056Z,-1.51
2023-01-30T07:39:41.760Z,-1.44
2023-01-30T07:42:26.726Z,-1.44
2023-01-30T07:45:11.896Z,-1.47
2023-01-30T07:47:56.859Z,-1.42
2023-01-30T07:50:42.598Z,-1.59
2023-01-30T07:53:27.684Z,-1.45
2023-01-30T07:56:13.799Z,-1.35
2023-01-30T07:58:59.141Z,-1.33
2023-01-30T08:01:44.875Z,-1.34
2023-01-30T08:04:30.508Z,-1.28
2023-01-30T08:07:16.371Z,-1.16
2023-01-30T08:10:03.439Z,-1.14
2023-01-30T08:13:26.422Z,-1.15
2023-01-30T08:16:38.535Z,-1.15
2023-01-30T08:19:31.767Z,-1.27
2023-01-30T08:22:19.542Z,-1.21
2023-01-30T08:25:35.028Z,-1.15
2023-01-30T08:28:21.423Z,-1.29
2023-01-30T08:31:11.220Z,-0.98
2023-01-30T08:34:01.329Z,-0.89
2023-01-30T08:36:50.014Z,-0.74
2023-01-30T08:39:37.198Z,-0.73
2023-01-30T08:42:22.641Z,-0.56
2023-01-30T08:45:08.092Z,-0.54
2023-01-30T08:47:53.402Z,-0.52
2023-01-30T08:50:39.707Z,-0.42
2023-01-30T08:53:27.352Z,-0.40
2023-01-30T08:56:14.838Z,-0.44
2023-01-30T08:59:01.630Z,-0.50
2023-01-30T09:01:46.785Z,-0.56
2023-01-30T09:04:32.218Z,-0.60
2023-01-30T09:08:13.820Z,-0.60
2023-01-30T09:10:33.832Z,-0.46
2023-01-30T09:13:50.733Z,-0.50
2023-01-30T09:16:41.382Z,-0.38
2023-01-30T09:19:38.537Z,-0.28
2023-01-30T09:23:05.757Z,-0.22
2023-01-30T09:25:52.249Z,-0.17
2023-01-30T09:29:14.864Z,-0.27
2023-01-30T09:32:05.316Z,-0.10
2023-01-30T09:34:52.674Z,-0.06
2023-01-30T09:37:47.884Z,0.00
2023-01-30T09:40:39.035Z,-0.05
2023-01-30T09:44:12.082Z,-0.08
2023-01-30T09:47:11.031Z,0.07
2023-01-30T09:50:25.318Z,-0.01
2023-01-30T09:53:13.456Z,0.20
2023-01-30T09:56:01.600Z,0.32
2023-01-30T09:59:04.342Z,0.38
2023-01-30T10:02:04.653Z,0.49
2023-01-30T10:05:01.000Z,0.41
2023-01-30T10:08:14.144Z,0.67
2023-01-30T10:11:31.586Z,0.51
2023-01-30T10:15:01.068Z,0.58
2023-01-30T10:18:01.463Z,0.60
2023-01-30T10:21:19.292Z,1.04
2023-01-30T10:28:26.144Z,1.64
2023-01-30T10:31:19.132Z,1.57
2023-01-30T10:34:22.791Z,1.54
2023-01-30T10:37:29.896Z,1.30
2023-01-30T10:40:34.896Z,1.24
2023-01-30T10:43:55.449Z,1.21
2023-01-30T10:47:29.804Z,1.11
2023-01-30T10:50:45.587Z,1.26
2023-01-30T10:54:19.296Z,1.31
2023-01-30T10:57:20.750Z,1.59
2023-01-30T11:00:24.080Z,1.86
2023-01-30T11:03:34.579Z,2.07
2023-01-30T11:06:24.064Z,2.12
2023-01-30T11:09:09.443Z,2.25
2023-01-30T11:11:55.530Z,2.35
2023-01-30T11:19:22.173Z,2.52
2023-01-30T11:22:14.793Z,2.68
2023-01-30T11:25:14.285Z,2.53
2023-01-30T11:28:12.550Z,2.55
2023-01-30T11:32:14.933Z,2.25
2023-01-30T11:35:26.538Z,2.05
2023-01-30T11:38:53.780Z,2.15
2023-01-30T11:42:05.553Z,2.03
2023-01-30T11:45:50.333Z,2.01
2023-01-30T11:49:04.375Z,1.43
2023-01-30T11:52:05.866Z,1.49
2023-01-30T11:54:53.248Z,1.34
2023-01-30T11:57:41.368Z,1.29
2023-01-30T12:00:50.022Z,1.34
2023-01-30T12:03:47.228Z,1.23
2023-01-30T12:06:36.784Z,1.28
2023-01-30T12:09:32.421Z,1.11
2023-01-30T12:12:46.459Z,1.24
2023-01-30T12:15:33.744Z,1.21
2023-01-30T12:18:56.824Z,1.34
2023-01-30T12:21:51.038Z,1.39
2023-01-30T12:25:02.831Z,1.44
2023-01-30T12:30:56.095Z,1.33
2023-01-30T12:33:40.778Z,1.25
2023-01-30T12:36:44.897Z,1.24
2023-01-30T12:40:03.753Z,1.08
2023-01-30T12:42:54.591Z,0.95
2023-01-30T12:46:04.431Z,1.03
2023-01-30T12:49:11.684Z,1.14
2023-01-30T12:52:18.299Z,1.18
2023-01-30T12:55:18.937Z,1.23
2023-01-30T12:58:35.491Z,1.22
2023-01-30T13:02:17.592Z,1.19
2023-01-30T13:05:23.082Z,1.15
2023-01-30T13:08:36.138Z,1.10
2023-01-30T13:11:39.520Z,1.02
2023-01-30T13:14:38.912Z,0.90
2023-01-30T13:17:52.370Z,0.88
2023-01-30T13:20:48.766Z,0.82
2023-01-30T13:23:33.197Z,0.74
2023-01-30T13:26:32.245Z,0.78
2023-01-30T13:29:32.098Z,0.82
2023-01-30T13:32:19.713Z,0.80
2023-01-30T13:35:09.223Z,0.75
2023-01-30T13:37:56.417Z,0.74
2023-01-30T13:40:44.167Z,0.72
2023-01-30T13:43:35.254Z,0.68
2023-01-30T13:46:26.149Z,0.69
2023-01-30T13:49:24.211Z,0.68
2023-01-30T13:52:16.191Z,0.67
2023-01-30T13:55:27.573Z,0.63
2023-01-30T13:58:43.875Z,0.70
2023-01-30T14:02:07.967Z,0.71
2023-01-30T14:04:58.086Z,0.71
2023-01-30T14:07:45.052Z,0.67
2023-01-30T14:10:34.585Z,0.64
2023-01-30T14:13:19.737Z,0.67
2023-01-30T14:16:05.700Z,0.64
2023-01-30T14:18:50.865Z,0.49
2023-01-30T14:21:35.652Z,0.49
2023-01-30T14:24:24.396Z,0.34
2023-01-30T14:27:27.072Z,0.11
2023-01-30T14:30:30.747Z,0.03
2023-01-30T14:33:21.912Z,-0.13
2023-01-30T14:36:06.971Z,-0.29
2023-01-30T14:39:39.942Z,-0.40
2023-01-30T14:42:27.213Z,-0.48
2023-01-30T14:45:16.501Z,-0.59
2023-01-30T14:48:27.419Z,-0.72
2023-01-30T14:51:15.056Z,-0.71
2023-01-30T14:54:12.286Z,-0.77
2023-01-30T14:57:31.853Z,-0.79
2023-01-30T15:00:24.277Z,-0.76
2023-01-30T15:03:18.060Z,-0.75
2023-01-30T15:06:04.367Z,-0.78
2023-01-30T15:08:49.708Z,-0.73
2023-01-30T15:11:35.755Z,-0.73
2023-01-30T15:14:40.742Z,-0.72
2023-01-30T15:17:43.706Z,-0.72
2023-01-30T15:20:56.179Z,-0.72
2023-01-30T15:24:02.607Z,-0.70
2023-01-30T15:26:50.247Z,-0.69
2023-01-30T15:29:52.183Z,-0.69
2023-01-30T15:32:37.669Z,-0.69
2023-01-30T15:35:27.397Z,-0.68
2023-01-30T15:38:38.405Z,-0.69
2023-01-30T15:41:24.157Z,-0.72
2023-01-30T15:44:39.354Z,-0.69
2023-01-30T15:47:49.491Z,-0.70
2023-01-30T15:50:35.997Z,-0.70
2023-01-30T15:53:28.277Z,-0.70
2023-01-30T15:56:22.971Z,-0.68
2023-01-30T15:59:20.307Z,-0.64
2023-01-30T16:02:17.205Z,-0.64
2023-01-30T16:05:25.259Z,-0.60
2023-01-30T16:08:21.582Z,-0.60
2023-01-30T16:11:06.175Z,-0.59
2023-01-30T16:13:51.048Z,-0.57
2023-01-30T16:16:36.446Z,-0.60
2023-01-30T16:19:28.162Z,-0.58
2023-01-30T16:22:17.639Z,-0.56
2023-01-30T16:25:03.883Z,-0.59
2023-01-30T16:27:51.118Z,-0.59
2023-01-30T16:30:39.680Z,-0.58
2023-01-30T16:33:25.547Z,-0.60
2023-01-30T16:36:19.495Z,-0.59
2023-01-30T16:39:29.081Z,-0.60
2023-01-30T16:42:24.614Z,-0.59
2023-01-30T16:45:34.292Z,-0.61
2023-01-30T16:48:19.051Z,-0.60
2023-01-30T16:51:14.680Z,-0.64
2023-01-30T16:54:03.065Z,-0.60
2023-01-30T16:56:53.151Z,-0.62
2023-01-30T16:59:38.805Z,-0.61
2023-01-30T17:02:31.510Z,-0.64
2023-01-30T17:05:36.812Z,-0.65
2023-01-30T17:08:30.577Z,-0.63
2023-01-30T17:11:32.988Z,-0.65
2023-01-30T17:14:21.147Z,-0.67
2023-01-30T17:17:07.127Z,-0.66
2023-01-30T17:19:52.291Z,-0.70
2023-01-30T17:22:41.249Z,-0.70
2023-01-30T17:25:35.348Z,-0.72
2023-01-30T17:28:22.699Z,-0.70
2023-01-30T17:31:11.681Z,-0.74
2023-01-30T17:33:57.617Z,-0.76
2023-01-30T17:36:45.910Z,-0.77
2023-01-30T17:39:30.514Z,-0.77
2023-01-30T17:42:21.368Z,-0.75
2023-01-30T17:45:06.643Z,-0.78
2023-01-30T17:47:51.162Z,-0.77
2023-01-30T17:50:36.060Z,-0.85
2023-01-30T17:53:20.547Z,-0.81
2023-01-30T17:56:13.189Z,-0.81
2023-01-30T17:58:58.177Z,-0.83
2023-01-30T18:01:45.795Z,-0.84
2023-01-30T18:04:30.614Z,-0.87
2023-01-30T18:07:16.083Z,-0.85
2023-01-30T18:10:00.886Z,-0.86
2023-01-30T18:12:45.432Z,-0.89
2023-01-30T18:15:30.501Z,-0.91
2023-01-30T18:18:16.727Z,-0.88
2023-01-30T18:21:01.333Z,-0.85
2023-01-30T18:23:45.813Z,-0.87
2023-01-30T18:26:30.567Z,-0.86
2023-01-30T18:29:15.832Z,-0.85
2023-01-30T18:32:05.019Z,-0.86
2023-01-30T18:34:50.094Z,-0.83
2023-01-30T18:37:34.996Z,-0.84
2023-01-30T18:40:20.460Z,-0.86
2023-01-30T18:43:05.722Z,-0.85
2023-01-30T18:46:01.028Z,-0.86
2023-01-30T18:48:46.586Z,-0.84
2023-01-30T18:51:33.946Z,-0.83
2023-01-30T18:54:18.755Z,-0.84
2023-01-30T18:57:03.699Z,-0.82
2023-01-30T18:59:48.392Z,-0.82
2023-01-30T19:02:33.710Z,-0.83
2023-01-30T19:05:18.938Z,-0.85
2023-01-30T19:08:04.031Z,-0.86
2023-01-30T19:10:48.701Z,-0.84
2023-01-30T19:13:33.469Z,-0.87
2023-01-30T19:16:18.934Z,-0.88
2023-01-30T19:19:05.234Z,-0.88
2023-01-30T19:21:51.670Z,-0.90
2023-01-30T19:24:36.789Z,-0.89
2023-01-30T19:27:22.353Z,-0.89
2023-01-30T19:30:07.939Z,-0.89
2023-01-30T19:32:53.806Z,-0.88
2023-01-30T19:35:41.728Z,-0.88
2023-01-30T19:38:26.493Z,-0.91
2023-01-30T19:41:13.399Z,-0.95
2023-01-30T19:43:59.497Z,-0.95
2023-01-30T19:46:45.673Z,-1.04
2023-01-30T19:49:30.603Z,-1.08
2023-01-30T19:52:15.377Z,-1.07
2023-01-30T19:55:00.523Z,-1.10
2023-01-30T19:57:45.353Z,-1.09
2023-01-30T20:00:30.177Z,-1.09
2023-01-30T20:03:15.691Z,-1.11
2023-01-30T20:06:16.502Z,-1.09
2023-01-30T20:09:07.015Z,-1.06
2023-01-30T20:11:51.562Z,-1.10
2023-01-30T20:14:36.664Z,-1.07
2023-01-30T20:17:21.242Z,-1.11
2023-01-30T20:20:06.463Z,-1.12
2023-01-30T20:22:51.225Z,-1.11
2023-01-30T20:25:35.974Z,-1.08
2023-01-30T20:28:20.874Z,-1.11
2023-01-30T20:31:06.992Z,-1.15
2023-01-30T20:33:55.082Z,-1.21
2023-01-30T20:36:40.638Z,-1.25
2023-01-30T20:39:25.692Z,-1.25
2023-01-30T20:42:10.383Z,-1.30
2023-01-30T20:44:55.143Z,-1.31
2023-01-30T20:47:40.530Z,-1.34
2023-01-30T20:50:26.878Z,-1.36
2023-01-30T20:53:11.782Z,-1.44
2023-01-30T20:55:57.927Z,-1.43
2023-01-30T20:58:42.792Z,-1.45
2023-01-30T21:01:27.588Z,-1.45
2023-01-30T21:04:15.071Z,-1.44
2023-01-30T21:07:00.393Z,-1.46
2023-01-30T21:09:45.190Z,-1.45
2023-01-30T21:12:30.435Z,-1.48
2023-01-30T21:15:15.208Z,-1.47
2023-01-30T21:18:00.360Z,-1.47
2023-01-30T21:20:49.245Z,-1.46
2023-01-30T21:23:35.594Z,-1.47
2023-01-30T21:26:22.108Z,-1.48
2023-01-30T21:29:07.840Z,-1.49
2023-01-30T21:31:53.553Z,-1.48
2023-01-30T21:34:38.191Z,-1.48
2023-01-30T21:37:41.516Z,-1.46
2023-01-30T21:40:44.814Z,-1.47
2023-01-30T21:43:29.524Z,-1.51
2023-01-30T21:46:16.190Z,-1.49
2023-01-30T21:49:00.689Z,-1.46
2023-01-30T21:51:47.826Z,-1.46
2023-01-30T21:54:32.741Z,-1.45
2023-01-30T21:57:17.347Z,-1.50
2023-01-30T22:00:02.100Z,-1.48
2023-01-30T22:02:50.129Z,-1.47
2023-01-30T22:05:35.579Z,-1.46
2023-01-30T22:08:20.579Z,-1.45
2023-01-30T22:11:10.537Z,-1.46
2023-01-30T22:13:55.944Z,-1.44
2023-01-30T22:16:41.143Z,-1.42
2023-01-30T22:19:26.056Z,-1.39
2023-01-30T22:22:10.872Z,-1.38
2023-01-30T22:24:55.330Z,-1.36
2023-01-30T22:27:40.269Z,-1.39
2023-01-30T22:30:24.868Z,-1.36
2023-01-30T22:33:09.808Z,-1.34
2023-01-30T22:35:54.800Z,-1.35
2023-01-30T22:38:47.627Z,-1.34
2023-01-30T22:41:34.631Z,-1.32
2023-01-30T22:44:20.149Z,-1.29
2023-01-30T22:47:04.959Z,-1.30
2023-01-30T22:49:49.623Z,-1.27
2023-01-30T22:52:34.369Z,-1.26
2023-01-30T22:55:19.479Z,-1.23
2023-01-30T22:58:04.259Z,-1.28
2023-01-30T23:00:48.776Z,-1.27
2023-01-30T23:03:35.887Z,-1.25
2023-01-30T23:06:24.324Z,-1.23
2023-01-30T23:09:13.405Z,-1.20
2023-01-30T23:12:16.483Z,-1.25
2023-01-30T23:15:01.455Z,-1.24
2023-01-30T23:18:04.843Z,-1.20
2023-01-30T23:20:49.689Z,-1.23
2023-01-30T23:23:34.566Z,-1.24
2023-01-30T23:26:20.355Z,-1.19
2023-01-30T23:29:07.259Z,-1.21
2023-01-30T23:31:51.927Z,-1.18
2023-01-30T23:34:36.959Z,-1.15
2023-01-30T23:37:41.853Z,-1.14
2023-01-30T23:40:26.474Z,-1.14
2023-01-30T23:43:11.625Z,-1.10
2023-01-30T23:45:57.449Z,-1.10
2023-01-30T23:48:44.399Z,-1.08
2023-01-30T23:51:31.860Z,-1.09
2023-01-30T23:54:16.701Z,-1.07
2023-01-30T23:57:01.397Z,-1.09
2023-01-30T23:59:45.943Z,-1.08
